sensor_id;sensor_type;location;lat;lon;timestamp;pressure;altitude;pressure_sealevel;temperature;humidity
78625;BME280;67944;0.000;0.000;2023-09-19T00:02:19;100172.44;;;25.86;49.38
78625;BME280;67944;0.000;0.000;2023-09-19T00:04:44;100167.09;;;25.86;48.99
78625;BME280;67944;0.000;0.000;2023-09-19T00:07:10;100179.63;;;25.85;49.04
78625;BME280;67944;0.000;0.000;2023-09-19T00:09:35;100189.47;;;25.85;48.75
78625;BME280;67944;0.000;0.000;2023-09-19T00:12:06;100190.72;;;25.82;49.06
78625;BME280;67944;0.000;0.000;2023-09-19T00:14:32;100185.16;;;25.84;48.96
78625;BME280;67944;0.000;0.000;2023-09-19T00:17:04;100196.88;;;25.83;49.43
78625;BME280;67944;0.000;0.000;2023-09-19T00:19:36;100192.56;;;25.82;49.24
78625;BME280;67944;0.000;0.000;2023-09-19T00:22:03;100197.91;;;25.82;49.79
78625;BME280;67944;0.000;0.000;2023-09-19T00:24:29;100200.59;;;25.82;49.58
78625;BME280;67944;0.000;0.000;2023-09-19T00:26:56;100196.50;;;25.79;49.17
78625;BME280;67944;0.000;0.000;2023-09-19T00:29:21;100196.50;;;25.79;48.86
78625;BME280;67944;0.000;0.000;2023-09-19T00:31:48;100198.34;;;25.79;49.47
78625;BME280;67944;0.000;0.000;2023-09-19T00:34:15;100195.69;;;25.79;49.06
78625;BME280;67944;0.000;0.000;2023-09-19T00:36:41;100185.47;;;25.76;49.34
78625;BME280;67944;0.000;0.000;2023-09-19T00:39:08;100190.00;;;25.75;49.54
78625;BME280;67944;0.000;0.000;2023-09-19T00:41:34;100196.38;;;25.74;49.54
78625;BME280;67944;0.000;0.000;2023-09-19T00:44:04;100192.88;;;25.74;49.35
78625;BME280;67944;0.000;0.000;2023-09-19T00:46:30;100201.91;;;25.73;49.27
78625;BME280;67944;0.000;0.000;2023-09-19T00:48:58;100210.97;;;25.72;49.46
78625;BME280;67944;0.000;0.000;2023-09-19T00:51:25;100204.00;;;25.71;49.43
78625;BME280;67944;0.000;0.000;2023-09-19T00:53:52;100199.91;;;25.68;49.66
78625;BME280;67944;0.000;0.000;2023-09-19T00:56:19;100203.59;;;25.67;49.73
78625;BME280;67944;0.000;0.000;2023-09-19T00:58:46;100205.69;;;25.65;49.55
78625;BME280;67944;0.000;0.000;2023-09-19T01:01:13;100212.03;;;25.64;49.87
78625;BME280;67944;0.000;0.000;2023-09-19T01:03:44;100215.53;;;25.65;49.05
78625;BME280;67944;0.000;0.000;2023-09-19T01:06:09;100214.72;;;25.64;49.65
78625;BME280;67944;0.000;0.000;2023-09-19T01:08:35;100223.53;;;25.65;49.52
78625;BME280;67944;0.000;0.000;2023-09-19T01:11:35;100226.59;;;25.61;49.36
78625;BME280;67944;0.000;0.000;2023-09-19T01:17:25;100237.91;;;25.57;49.62
78625;BME280;67944;0.000;0.000;2023-09-19T01:23:12;100227.34;;;25.50;48.92
78625;BME280;67944;0.000;0.000;2023-09-19T01:25:56;100225.09;;;25.47;49.30
78625;BME280;67944;0.000;0.000;2023-09-19T01:31:24;100224.94;;;25.42;49.73
78625;BME280;67944;0.000;0.000;2023-09-19T01:34:01;100228.03;;;25.39;49.57
78625;BME280;67944;0.000;0.000;2023-09-19T01:36:37;100229.06;;;25.38;49.25
78625;BME280;67944;0.000;0.000;2023-09-19T01:39:06;100228.66;;;25.35;49.05
78625;BME280;67944;0.000;0.000;2023-09-19T01:44:51;100234.88;;;25.28;49.83
78625;BME280;67944;0.000;0.000;2023-09-19T01:47:35;100229.16;;;25.25;49.46
78625;BME280;67944;0.000;0.000;2023-09-19T01:50:13;100235.53;;;25.24;49.39
78625;BME280;67944;0.000;0.000;2023-09-19T01:52:56;100241.91;;;25.23;49.34
78625;BME280;67944;0.000;0.000;2023-09-19T01:55:26;100238.63;;;25.21;50.04
78625;BME280;67944;0.000;0.000;2023-09-19T02:00:54;100250.75;;;25.17;50.07
78625;BME280;67944;0.000;0.000;2023-09-19T02:03:22;100257.09;;;25.16;50.14
78625;BME280;67944;0.000;0.000;2023-09-19T02:05:52;100256.50;;;25.14;49.97
78625;BME280;67944;0.000;0.000;2023-09-19T02:08:20;100261.00;;;25.13;49.35
78625;BME280;67944;0.000;0.000;2023-09-19T02:10:46;100274.56;;;25.12;49.86
78625;BME280;67944;0.000;0.000;2023-09-19T02:13:18;100271.31;;;25.10;50.23
78625;BME280;67944;0.000;0.000;2023-09-19T02:15:45;100269.69;;;25.09;49.56
78625;BME280;67944;0.000;0.000;2023-09-19T02:18:12;100267.22;;;25.07;49.31
78625;BME280;67944;0.000;0.000;2023-09-19T02:20:38;100271.75;;;25.07;49.58
78625;BME280;67944;0.000;0.000;2023-09-19T02:23:04;100273.78;;;25.05;49.69
78625;BME280;67944;0.000;0.000;2023-09-19T02:25:30;100287.13;;;25.05;49.97
78625;BME280;67944;0.000;0.000;2023-09-19T02:27:57;100286.50;;;25.03;50.36
78625;BME280;67944;0.000;0.000;2023-09-19T02:30:26;100285.69;;;25.02;49.75
78625;BME280;67944;0.000;0.000;2023-09-19T02:32:52;100292.06;;;25.01;49.76
78625;BME280;67944;0.000;0.000;2023-09-19T02:35:17;100305.78;;;24.98;50.51
78625;BME280;67944;0.000;0.000;2023-09-19T02:37:46;100300.47;;;24.98;49.52
78625;BME280;67944;0.000;0.000;2023-09-19T02:40:12;100300.69;;;24.97;49.69
78625;BME280;67944;0.000;0.000;2023-09-19T02:42:47;100306.22;;;24.95;50.24
78625;BME280;67944;0.000;0.000;2023-09-19T02:45:18;100305.41;;;24.94;50.59
78625;BME280;67944;0.000;0.000;2023-09-19T02:47:45;100305.78;;;24.91;50.63
78625;BME280;67944;0.000;0.000;2023-09-19T02:50:11;100312.16;;;24.90;50.75
78625;BME280;67944;0.000;0.000;2023-09-19T02:52:38;100307.88;;;24.89;50.51
78625;BME280;67944;0.000;0.000;2023-09-19T02:55:03;100309.72;;;24.89;49.90
78625;BME280;67944;0.000;0.000;2023-09-19T02:57:31;100316.06;;;24.88;50.08
78625;BME280;67944;0.000;0.000;2023-09-19T02:59:59;100315.25;;;24.87;50.43
78625;BME280;67944;0.000;0.000;2023-09-19T03:02:25;100313.84;;;24.85;50.28
78625;BME280;67944;0.000;0.000;2023-09-19T03:04:53;100321.81;;;24.85;50.96
78625;BME280;67944;0.000;0.000;2023-09-19T03:07:18;100322.84;;;24.84;50.66
78625;BME280;67944;0.000;0.000;2023-09-19T03:09:44;100320.41;;;24.82;50.13
78625;BME280;67944;0.000;0.000;2023-09-19T03:12:10;100323.47;;;24.79;50.91
78625;BME280;67944;0.000;0.000;2023-09-19T03:14:36;100319.38;;;24.77;49.98
78625;BME280;67944;0.000;0.000;2023-09-19T03:17:02;100326.38;;;24.71;50.85
78625;BME280;67944;0.000;0.000;2023-09-19T03:19:30;100323.97;;;24.63;51.01
78625;BME280;67944;0.000;0.000;2023-09-19T03:21:56;100328.47;;;24.56;51.09
78625;BME280;67944;0.000;0.000;2023-09-19T03:24:22;100328.47;;;24.49;51.03
78625;BME280;67944;0.000;0.000;2023-09-19T03:26:48;100334.66;;;24.43;50.61
78625;BME280;67944;0.000;0.000;2023-09-19T03:29:14;100335.50;;;24.37;51.15
78625;BME280;67944;0.000;0.000;2023-09-19T03:31:41;100327.50;;;24.31;50.50
78625;BME280;67944;0.000;0.000;2023-09-19T03:34:06;100336.34;;;24.24;50.52
78625;BME280;67944;0.000;0.000;2023-09-19T03:36:35;100333.66;;;24.18;51.17
78625;BME280;67944;0.000;0.000;2023-09-19T03:39:01;100335.09;;;24.14;51.34
78625;BME280;67944;0.000;0.000;2023-09-19T03:41:31;100334.88;;;24.09;51.26
78625;BME280;67944;0.000;0.000;2023-09-19T03:43:57;100335.50;;;24.04;51.16
78625;BME280;67944;0.000;0.000;2023-09-19T03:46:22;100333.69;;;23.98;50.74
78625;BME280;67944;0.000;0.000;2023-09-19T03:48:48;100333.25;;;23.95;51.06
78625;BME280;67944;0.000;0.000;2023-09-19T03:51:13;100341.66;;;23.91;51.87
78625;BME280;67944;0.000;0.000;2023-09-19T03:53:39;100335.91;;;23.88;51.10
78625;BME280;67944;0.000;0.000;2023-09-19T03:56:04;100343.47;;;23.84;51.22
78625;BME280;67944;0.000;0.000;2023-09-19T03:58:30;100342.03;;;23.82;51.71
78625;BME280;67944;0.000;0.000;2023-09-19T04:00:56;100338.19;;;23.78;51.24
78625;BME280;67944;0.000;0.000;2023-09-19T04:03:21;100346.56;;;23.75;51.86
78625;BME280;67944;0.000;0.000;2023-09-19T04:05:47;100349.63;;;23.72;51.48
78625;BME280;67944;0.000;0.000;2023-09-19T04:08:15;100350.84;;;23.69;51.68
78625;BME280;67944;0.000;0.000;2023-09-19T04:10:42;100355.53;;;23.67;51.33
78625;BME280;67944;0.000;0.000;2023-09-19T04:13:08;100349.81;;;23.64;51.63
78625;BME280;67944;0.000;0.000;2023-09-19T04:15:34;100344.69;;;23.62;51.60
78625;BME280;67944;0.000;0.000;2023-09-19T04:17:59;100350.22;;;23.61;51.95
78625;BME280;67944;0.000;0.000;2023-09-19T04:20:25;100348.81;;;23.58;51.65
78625;BME280;67944;0.000;0.000;2023-09-19T04:22:51;100360.47;;;23.57;51.48
78625;BME280;67944;0.000;0.000;2023-09-19T04:25:16;100357.38;;;23.53;52.10
78625;BME280;67944;0.000;0.000;2023-09-19T04:27:43;100362.03;;;23.51;52.04
78625;BME280;67944;0.000;0.000;2023-09-19T04:30:09;100365.56;;;23.52;51.87
78625;BME280;67944;0.000;0.000;2023-09-19T04:32:36;100383.31;;;23.51;51.77
78625;BME280;67944;0.000;0.000;2023-09-19T04:35:06;100367.19;;;23.53;51.94
78625;BME280;67944;0.000;0.000;2023-09-19T04:37:39;100385.59;;;23.54;52.02
78625;BME280;67944;0.000;0.000;2023-09-19T04:40:08;100373.94;;;23.55;52.00
78625;BME280;67944;0.000;0.000;2023-09-19T04:42:39;100385.22;;;23.57;52.12
78625;BME280;67944;0.000;0.000;2023-09-19T04:45:04;100396.47;;;23.60;51.68
78625;BME280;67944;0.000;0.000;2023-09-19T04:47:30;100383.75;;;23.62;51.65
78625;BME280;67944;0.000;0.000;2023-09-19T04:49:55;100406.47;;;23.64;51.92
78625;BME280;67944;0.000;0.000;2023-09-19T04:52:23;100390.31;;;23.66;51.50
78625;BME280;67944;0.000;0.000;2023-09-19T04:54:48;100387.47;;;23.67;51.70
78625;BME280;67944;0.000;0.000;2023-09-19T04:57:14;100406.50;;;23.71;51.42
78625;BME280;67944;0.000;0.000;2023-09-19T04:59:41;100396.47;;;23.73;51.69
78625;BME280;67944;0.000;0.000;2023-09-19T05:02:06;100398.94;;;23.74;51.67
78625;BME280;67944;0.000;0.000;2023-09-19T05:04:33;100408.34;;;23.77;50.82
78625;BME280;67944;0.000;0.000;2023-09-19T05:06:59;100406.72;;;23.76;51.43
78625;BME280;67944;0.000;0.000;2023-09-19T05:09:26;100425.13;;;23.77;50.95
78625;BME280;67944;0.000;0.000;2023-09-19T05:11:51;100429.41;;;23.78;50.77
78625;BME280;67944;0.000;0.000;2023-09-19T05:14:18;100430.88;;;23.81;50.94
78625;BME280;67944;0.000;0.000;2023-09-19T05:16:44;100423.91;;;23.80;50.96
78625;BME280;67944;0.000;0.000;2023-09-19T05:19:09;100425.13;;;23.84;50.65
78625;BME280;67944;0.000;0.000;2023-09-19T05:21:37;100441.69;;;23.86;51.11
78625;BME280;67944;0.000;0.000;2023-09-19T05:24:05;100449.66;;;23.86;50.22
78625;BME280;67944;0.000;0.000;2023-09-19T05:26:34;100442.31;;;23.88;50.43
78625;BME280;67944;0.000;0.000;2023-09-19T05:28:59;100434.31;;;23.88;50.86
78625;BME280;67944;0.000;0.000;2023-09-19T05:31:26;100447.44;;;23.89;50.46
78625;BME280;67944;0.000;0.000;2023-09-19T05:33:53;100447.22;;;23.91;50.54
78625;BME280;67944;0.000;0.000;2023-09-19T05:36:19;100452.53;;;23.91;49.72
78625;BME280;67944;0.000;0.000;2023-09-19T05:38:45;100441.72;;;23.92;50.35
78625;BME280;67944;0.000;0.000;2023-09-19T05:41:11;100448.88;;;23.92;49.79
78625;BME280;67944;0.000;0.000;2023-09-19T05:43:39;100454.19;;;23.92;50.18
78625;BME280;67944;0.000;0.000;2023-09-19T05:46:06;100445.19;;;23.93;49.71
78625;BME280;67944;0.000;0.000;2023-09-19T05:48:33;100435.38;;;23.93;49.27
78625;BME280;67944;0.000;0.000;2023-09-19T05:50:59;100446.00;;;23.93;50.02
78625;BME280;67944;0.000;0.000;2023-09-19T05:53:25;100458.28;;;23.95;49.20
78625;BME280;67944;0.000;0.000;2023-09-19T05:55:50;100453.78;;;23.95;49.94
78625;BME280;67944;0.000;0.000;2023-09-19T05:58:18;100462.59;;;23.96;49.87
78625;BME280;67944;0.000;0.000;2023-09-19T06:00:45;100460.75;;;23.96;49.52
78625;BME280;67944;0.000;0.000;2023-09-19T06:03:12;100464.22;;;23.97;48.84
78625;BME280;67944;0.000;0.000;2023-09-19T06:05:40;100465.06;;;23.97;49.31
78625;BME280;67944;0.000;0.000;2023-09-19T06:08:08;100468.72;;;23.96;49.92
78625;BME280;67944;0.000;0.000;2023-09-19T06:10:34;100467.72;;;23.97;49.17
78625;BME280;67944;0.000;0.000;2023-09-19T06:13:02;100470.38;;;23.97;49.24
78625;BME280;67944;0.000;0.000;2023-09-19T06:15:31;100474.66;;;23.98;49.00
78625;BME280;67944;0.000;0.000;2023-09-19T06:17:58;100476.31;;;23.99;49.22
78625;BME280;67944;0.000;0.000;2023-09-19T06:20:30;100481.22;;;24.02;48.95
78625;BME280;67944;0.000;0.000;2023-09-19T06:22:56;100478.56;;;24.02;48.77
78625;BME280;67944;0.000;0.000;2023-09-19T06:25:21;100481.00;;;24.04;48.74
78625;BME280;67944;0.000;0.000;2023-09-19T06:27:52;100479.97;;;24.05;49.21
78625;BME280;67944;0.000;0.000;2023-09-19T06:30:20;100483.25;;;24.07;48.54
78625;BME280;67944;0.000;0.000;2023-09-19T06:32:46;100491.03;;;24.08;48.48
78625;BME280;67944;0.000;0.000;2023-09-19T06:35:13;100485.31;;;24.11;49.56
78625;BME280;67944;0.000;0.000;2023-09-19T06:37:41;100492.09;;;24.14;49.39
78625;BME280;67944;0.000;0.000;2023-09-19T06:40:14;100490.25;;;24.14;48.78
78625;BME280;67944;0.000;0.000;2023-09-19T06:42:50;100494.97;;;24.19;48.51
78625;BME280;67944;0.000;0.000;2023-09-19T06:45:16;100498.88;;;24.23;49.04
78625;BME280;67944;0.000;0.000;2023-09-19T06:47:49;100499.69;;;24.23;49.06
78625;BME280;67944;0.000;0.000;2023-09-19T06:50:15;100514.44;;;24.26;49.22
78625;BME280;67944;0.000;0.000;2023-09-19T06:52:45;100512.59;;;24.26;48.68
78625;BME280;67944;0.000;0.000;2023-09-19T06:55:12;100514.22;;;24.27;48.27
78625;BME280;67944;0.000;0.000;2023-09-19T06:57:39;100526.50;;;24.29;49.11
78625;BME280;67944;0.000;0.000;2023-09-19T07:00:10;100523.84;;;24.29;48.68
78625;BME280;67944;0.000;0.000;2023-09-19T07:03:05;100531.22;;;24.26;48.23
78625;BME280;67944;0.000;0.000;2023-09-19T07:05:31;100542.88;;;24.25;48.49
78625;BME280;67944;0.000;0.000;2023-09-19T07:07:58;100538.38;;;24.19;47.79
78625;BME280;67944;0.000;0.000;2023-09-19T07:10:25;100534.47;;;24.15;47.95
78625;BME280;67944;0.000;0.000;2023-09-19T07:12:58;100537.53;;;24.12;48.40
78625;BME280;67944;0.000;0.000;2023-09-19T07:15:24;100529.53;;;24.12;47.65
78625;BME280;67944;0.000;0.000;2023-09-19T07:17:54;100541.81;;;24.13;48.44
78625;BME280;67944;0.000;0.000;2023-09-19T07:20:22;100539.78;;;24.15;48.15
78625;BME280;67944;0.000;0.000;2023-09-19T07:22:51;100545.09;;;24.15;47.29
78625;BME280;67944;0.000;0.000;2023-09-19T07:25:16;100549.81;;;24.20;47.51
78625;BME280;67944;0.000;0.000;2023-09-19T07:27:42;100551.28;;;24.22;47.62
78625;BME280;67944;0.000;0.000;2023-09-19T07:30:09;100557.00;;;24.26;48.33
78625;BME280;67944;0.000;0.000;2023-09-19T07:32:35;100556.63;;;24.29;47.61
78625;BME280;67944;0.000;0.000;2023-09-19T07:35:02;100565.03;;;24.33;47.34
78625;BME280;67944;0.000;0.000;2023-09-19T07:37:29;100570.75;;;24.36;47.74
78625;BME280;67944;0.000;0.000;2023-09-19T07:40:02;100577.53;;;24.39;48.10
78625;BME280;67944;0.000;0.000;2023-09-19T07:42:36;100580.59;;;24.42;47.44
78625;BME280;67944;0.000;0.000;2023-09-19T07:45:04;100581.03;;;24.46;47.24
78625;BME280;67944;0.000;0.000;2023-09-19T07:47:30;100580.59;;;24.49;46.87
78625;BME280;67944;0.000;0.000;2023-09-19T07:49:58;100587.16;;;24.53;47.07
78625;BME280;67944;0.000;0.000;2023-09-19T07:52:25;100583.28;;;24.55;46.63
78625;BME280;67944;0.000;0.000;2023-09-19T07:54:50;100585.53;;;24.58;46.82
78625;BME280;67944;0.000;0.000;2023-09-19T07:57:16;100580.63;;;24.62;46.55
78625;BME280;67944;0.000;0.000;2023-09-19T07:59:41;100580.44;;;24.64;47.08
78625;BME280;67944;0.000;0.000;2023-09-19T08:02:08;100591.69;;;24.66;47.26
78625;BME280;67944;0.000;0.000;2023-09-19T08:04:35;100593.13;;;24.68;47.11
78625;BME280;67944;0.000;0.000;2023-09-19T08:07:01;100590.88;;;24.72;46.40
78625;BME280;67944;0.000;0.000;2023-09-19T08:09:28;100597.44;;;24.76;46.61
78625;BME280;67944;0.000;0.000;2023-09-19T08:11:58;100606.25;;;24.76;46.12
78625;BME280;67944;0.000;0.000;2023-09-19T08:14:24;100602.56;;;24.77;45.95
78625;BME280;67944;0.000;0.000;2023-09-19T08:16:51;100609.31;;;24.80;46.63
78625;BME280;67944;0.000;0.000;2023-09-19T08:19:16;100618.53;;;24.84;46.51
78625;BME280;67944;0.000;0.000;2023-09-19T08:21:42;100610.34;;;24.85;45.68
78625;BME280;67944;0.000;0.000;2023-09-19T08:24:11;100618.97;;;24.87;45.60
78625;BME280;67944;0.000;0.000;2023-09-19T08:26:37;100619.59;;;24.89;46.01
78625;BME280;67944;0.000;0.000;2023-09-19T08:29:03;100623.66;;;24.92;44.98
78625;BME280;67944;0.000;0.000;2023-09-19T08:31:30;100623.44;;;24.93;45.25
78625;BME280;67944;0.000;0.000;2023-09-19T08:33:55;100619.78;;;24.94;44.90
78625;BME280;67944;0.000;0.000;2023-09-19T08:36:21;100625.75;;;24.97;45.25
78625;BME280;67944;0.000;0.000;2023-09-19T08:38:46;100630.88;;;24.98;45.38
78625;BME280;67944;0.000;0.000;2023-09-19T08:41:12;100622.66;;;25.00;44.43
78625;BME280;67944;0.000;0.000;2023-09-19T08:43:37;100617.97;;;25.02;44.23
78625;BME280;67944;0.000;0.000;2023-09-19T08:48:39;100629.22;;;25.04;44.34
78625;BME280;67944;0.000;0.000;2023-09-19T08:51:21;100627.19;;;25.06;44.06
78625;BME280;67944;0.000;0.000;2023-09-19T08:53:55;100624.53;;;25.06;43.64
78625;BME280;67944;0.000;0.000;2023-09-19T08:56:26;100625.34;;;25.06;43.78
78625;BME280;67944;0.000;0.000;2023-09-19T08:58:59;100620.41;;;25.03;43.36
78625;BME280;67944;0.000;0.000;2023-09-19T09:01:29;100616.13;;;25.02;43.36
78625;BME280;67944;0.000;0.000;2023-09-19T09:03:56;100629.44;;;25.02;42.62
78625;BME280;67944;0.000;0.000;2023-09-19T09:06:23;100631.28;;;25.02;42.95
78625;BME280;67944;0.000;0.000;2023-09-19T09:08:52;100623.91;;;25.04;42.45
78625;BME280;67944;0.000;0.000;2023-09-19T09:11:18;100633.53;;;25.05;42.80
78625;BME280;67944;0.000;0.000;2023-09-19T09:13:44;100632.72;;;25.04;42.18
78625;BME280;67944;0.000;0.000;2023-09-19T09:16:12;100620.22;;;25.05;41.54
78625;BME280;67944;0.000;0.000;2023-09-19T09:18:39;100638.88;;;25.05;42.09
78625;BME280;67944;0.000;0.000;2023-09-19T09:21:05;100633.34;;;25.06;41.47
78625;BME280;67944;0.000;0.000;2023-09-19T09:23:31;100634.97;;;25.07;41.20
78625;BME280;67944;0.000;0.000;2023-09-19T09:25:59;100637.44;;;25.09;41.64
78625;BME280;67944;0.000;0.000;2023-09-19T09:28:30;100633.53;;;25.11;41.35
78625;BME280;67944;0.000;0.000;2023-09-19T09:30:57;100633.31;;;25.13;41.51
78625;BME280;67944;0.000;0.000;2023-09-19T09:33:36;100647.25;;;25.15;40.61
78625;BME280;67944;0.000;0.000;2023-09-19T09:36:03;100633.72;;;25.16;40.76
78625;BME280;67944;0.000;0.000;2023-09-19T09:38:42;100649.50;;;25.18;40.41
78625;BME280;67944;0.000;0.000;2023-09-19T09:41:10;100650.13;;;25.20;40.93
78625;BME280;67944;0.000;0.000;2023-09-19T09:43:39;100638.44;;;25.21;40.72
78625;BME280;67944;0.000;0.000;2023-09-19T09:46:18;100641.72;;;25.23;40.63
78625;BME280;67944;0.000;0.000;2023-09-19T09:51:33;100635.78;;;25.27;40.69
78625;BME280;67944;0.000;0.000;2023-09-19T09:54:26;100634.56;;;25.30;39.56
78625;BME280;67944;0.000;0.000;2023-09-19T09:57:08;100628.19;;;25.31;40.38
78625;BME280;67944;0.000;0.000;2023-09-19T09:59:50;100620.00;;;25.33;39.76
78625;BME280;67944;0.000;0.000;2023-09-19T10:02:18;100625.91;;;25.35;39.43
78625;BME280;67944;0.000;0.000;2023-09-19T10:04:53;100620.16;;;25.38;39.45
78625;BME280;67944;0.000;0.000;2023-09-19T10:07:41;100618.13;;;25.40;39.65
78625;BME280;67944;0.000;0.000;2023-09-19T10:10:12;100616.06;;;25.42;39.79
78625;BME280;67944;0.000;0.000;2023-09-19T10:12:48;100613.19;;;25.43;39.18
78625;BME280;67944;0.000;0.000;2023-09-19T10:15:18;100618.94;;;25.40;39.19
78625;BME280;67944;0.000;0.000;2023-09-19T10:17:47;100619.34;;;25.37;38.70
78625;BME280;67944;0.000;0.000;2023-09-19T10:20:15;100605.41;;;25.35;38.88
78625;BME280;67944;0.000;0.000;2023-09-19T10:23:00;100614.22;;;25.36;39.06
78625;BME280;67944;0.000;0.000;2023-09-19T10:25:27;100612.81;;;25.33;39.07
78625;BME280;67944;0.000;0.000;2023-09-19T10:28:16;100613.84;;;25.32;38.45
78625;BME280;67944;0.000;0.000;2023-09-19T10:30:51;100609.31;;;25.33;38.35
78625;BME280;67944;0.000;0.000;2023-09-19T10:33:19;100613.41;;;25.35;38.64
78625;BME280;67944;0.000;0.000;2023-09-19T10:35:48;100619.13;;;25.39;38.12
78625;BME280;67944;0.000;0.000;2023-09-19T10:38:17;100607.25;;;25.41;38.64
78625;BME280;67944;0.000;0.000;2023-09-19T10:40:49;100604.16;;;25.44;38.75
78625;BME280;67944;0.000;0.000;2023-09-19T10:43:17;100611.75;;;25.47;38.59
78625;BME280;67944;0.000;0.000;2023-09-19T10:45:45;100612.38;;;25.49;38.42
78625;BME280;67944;0.000;0.000;2023-09-19T10:48:12;100616.47;;;25.52;38.32
78625;BME280;67944;0.000;0.000;2023-09-19T10:50:51;100620.56;;;25.54;38.60
78625;BME280;67944;0.000;0.000;2023-09-19T10:53:17;100619.28;;;25.57;37.95
78625;BME280;67944;0.000;0.000;2023-09-19T10:55:56;100613.53;;;25.60;38.38
78625;BME280;67944;0.000;0.000;2023-09-19T10:58:31;100610.50;;;25.63;38.32
78625;BME280;67944;0.000;0.000;2023-09-19T11:01:04;100613.78;;;25.65;37.94
78625;BME280;67944;0.000;0.000;2023-09-19T11:03:38;100605.56;;;25.67;38.29
78625;BME280;67944;0.000;0.000;2023-09-19T11:06:18;100601.47;;;25.71;38.37
78625;BME280;67944;0.000;0.000;2023-09-19T11:09:02;100594.88;;;25.73;38.15
78625;BME280;67944;0.000;0.000;2023-09-19T11:11:44;100602.69;;;25.75;37.65
78625;BME280;67944;0.000;0.000;2023-09-19T11:30:31;100576.13;;;25.93;37.98
78625;BME280;67944;0.000;0.000;2023-09-19T11:33:29;100574.06;;;25.95;37.58
78625;BME280;67944;0.000;0.000;2023-09-19T11:36:05;100572.81;;;25.98;37.42
78625;BME280;67944;0.000;0.000;2023-09-19T11:43:52;100568.25;;;26.05;37.25
78625;BME280;67944;0.000;0.000;2023-09-19T11:46:21;100565.78;;;26.03;36.83
78625;BME280;67944;0.000;0.000;2023-09-19T11:48:53;100561.25;;;26.04;36.82
78625;BME280;67944;0.000;0.000;2023-09-19T11:51:23;100563.94;;;26.04;37.13
78625;BME280;67944;0.000;0.000;2023-09-19T11:53:55;100553.03;;;26.05;36.44
78625;BME280;67944;0.000;0.000;2023-09-19T11:56:23;100553.66;;;26.07;36.33
78625;BME280;67944;0.000;0.000;2023-09-19T11:58:51;100549.94;;;26.08;36.64
78625;BME280;67944;0.000;0.000;2023-09-19T12:01:24;100545.22;;;26.10;36.36
78625;BME280;67944;0.000;0.000;2023-09-19T12:03:53;100552.81;;;26.13;36.61
78625;BME280;67944;0.000;0.000;2023-09-19T12:06:19;100551.78;;;26.14;36.40
78625;BME280;67944;0.000;0.000;2023-09-19T12:08:47;100541.09;;;26.14;36.29
78625;BME280;67944;0.000;0.000;2023-09-19T12:11:15;100549.72;;;26.16;36.35
78625;BME280;67944;0.000;0.000;2023-09-19T12:13:47;100543.34;;;26.17;36.01
78625;BME280;67944;0.000;0.000;2023-09-19T12:16:14;100546.00;;;26.17;36.36
78625;BME280;67944;0.000;0.000;2023-09-19T12:18:41;100541.28;;;26.19;36.33
78625;BME280;67944;0.000;0.000;2023-09-19T12:21:21;100528.72;;;26.20;35.86
78625;BME280;67944;0.000;0.000;2023-09-19T12:24:17;100529.53;;;26.20;35.99
78625;BME280;67944;0.000;0.000;2023-09-19T12:26:46;100535.69;;;26.21;36.07
78625;BME280;67944;0.000;0.000;2023-09-19T12:29:20;100535.69;;;26.21;35.77
78625;BME280;67944;0.000;0.000;2023-09-19T12:31:55;100532.00;;;26.22;35.89
78625;BME280;67944;0.000;0.000;2023-09-19T12:34:24;100522.13;;;26.22;35.74
78625;BME280;67944;0.000;0.000;2023-09-19T12:37:12;100521.91;;;26.24;36.19
78625;BME280;67944;0.000;0.000;2023-09-19T12:39:45;100517.41;;;26.24;35.42
78625;BME280;67944;0.000;0.000;2023-09-19T12:42:16;100523.34;;;26.26;35.75
78625;BME280;67944;0.000;0.000;2023-09-19T12:44:50;100524.97;;;26.27;35.78
78625;BME280;67944;0.000;0.000;2023-09-19T12:47:20;100514.31;;;26.27;35.51
78625;BME280;67944;0.000;0.000;2023-09-19T12:52:38;100512.66;;;26.33;35.29
78625;BME280;67944;0.000;0.000;2023-09-19T12:55:04;100510.59;;;26.35;35.99
78625;BME280;67944;0.000;0.000;2023-09-19T12:57:35;100515.72;;;26.37;35.72
78625;BME280;67944;0.000;0.000;2023-09-19T13:00:04;100513.66;;;26.39;35.75
78625;BME280;67944;0.000;0.000;2023-09-19T13:02:37;100500.91;;;26.41;35.27
78625;BME280;67944;0.000;0.000;2023-09-19T13:05:03;100504.13;;;26.43;35.17
78625;BME280;67944;0.000;0.000;2023-09-19T13:07:45;100497.75;;;26.44;35.61
78625;BME280;67944;0.000;0.000;2023-09-19T13:10:15;100506.38;;;26.46;35.73
78625;BME280;67944;0.000;0.000;2023-09-19T13:12:43;100501.63;;;26.48;35.00
78625;BME280;67944;0.000;0.000;2023-09-19T13:15:13;100500.59;;;26.49;35.29
78625;BME280;67944;0.000;0.000;2023-09-19T13:17:47;100492.38;;;26.50;35.61
78625;BME280;67944;0.000;0.000;2023-09-19T13:20:26;100490.53;;;26.51;35.61
78625;BME280;67944;0.000;0.000;2023-09-19T13:22:57;100492.16;;;26.52;35.13
78625;BME280;67944;0.000;0.000;2023-09-19T13:25:33;100496.25;;;26.54;35.39
78625;BME280;67944;0.000;0.000;2023-09-19T13:28:00;100488.22;;;26.54;35.06
78625;BME280;67944;0.000;0.000;2023-09-19T13:30:29;100484.53;;;26.55;35.34
78625;BME280;67944;0.000;0.000;2023-09-19T13:33:10;100482.47;;;26.57;35.20
78625;BME280;67944;0.000;0.000;2023-09-19T13:35:38;100483.28;;;26.58;35.15
78625;BME280;67944;0.000;0.000;2023-09-19T13:38:05;100484.09;;;26.58;35.13
78625;BME280;67944;0.000;0.000;2023-09-19T13:40:32;100481.22;;;26.60;35.00
78625;BME280;67944;0.000;0.000;2023-09-19T13:43:01;100482.03;;;26.60;35.09
78625;BME280;67944;0.000;0.000;2023-09-19T13:45:26;100472.75;;;26.63;35.36
78625;BME280;67944;0.000;0.000;2023-09-19T13:47:52;100475.19;;;26.64;35.40
78625;BME280;67944;0.000;0.000;2023-09-19T13:50:18;100472.28;;;26.66;35.23
78625;BME280;67944;0.000;0.000;2023-09-19T13:52:49;100471.25;;;26.67;35.14
78625;BME280;67944;0.000;0.000;2023-09-19T13:55:17;100479.06;;;26.69;35.22
78625;BME280;67944;0.000;0.000;2023-09-19T13:57:46;100476.16;;;26.70;35.29